createdAt,value
2023-04-14T00:02:24.944Z,100577.63
2023-04-14T00:04:54.825Z,100579.44
2023-04-14T00:07:21.894Z,100570.16
2023-04-14T00:09:49.031Z,100577.72
2023-04-14T00:12:16.093Z,100568.91
2023-04-14T00:14:43.446Z,100566.78
2023-04-14T00:17:11.000Z,100568.09
2023-04-14T00:19:38.284Z,100556.84
2023-04-14T00:22:05.177Z,100576.00
2023-04-14T00:24:32.746Z,100572.78
2023-04-14T00:26:59.769Z,100576.22
2023-04-14T00:29:26.865Z,100571.97
2023-04-14T00:31:54.008Z,100571.69
2023-04-14T00:34:21.174Z,100587.06
2023-04-14T00:36:48.084Z,100587.03
2023-04-14T00:39:15.100Z,100577.00
2023-04-14T00:41:43.289Z,100578.97
2023-04-14T00:44:10.550Z,100576.06
2023-04-14T00:46:37.711Z,100572.22
2023-04-14T00:49:05.134Z,100575.03
2023-04-14T00:51:32.678Z,100580.78
2023-04-14T00:54:02.961Z,100576.69
2023-04-14T00:56:31.376Z,100588.75
2023-04-14T00:59:01.910Z,100585.13
2023-04-14T01:01:29.943Z,100586.50
2023-04-14T01:03:58.249Z,100586.59
2023-04-14T01:06:26.847Z,100584.88
2023-04-14T01:08:54.361Z,100586.13
2023-04-14T01:11:39.248Z,100583.41
2023-04-14T01:14:27.995Z,100578.75
2023-04-14T01:17:03.906Z,100582.97
2023-04-14T01:19:59.091Z,100581.72
2023-04-14T01:22:31.523Z,100574.78
2023-04-14T01:25:58.148Z,100581.13
2023-04-14T01:28:55.262Z,100572.16
2023-04-14T01:31:28.533Z,100577.56
2023-04-14T01:34:12.593Z,100572.47
2023-04-14T01:36:48.330Z,100569.22
2023-04-14T01:39:21.198Z,100569.03
2023-04-14T01:41:57.164Z,100573.09
2023-04-14T01:44:26.295Z,100574.19
2023-04-14T01:46:57.799Z,100572.94
2023-04-14T01:49:26.881Z,100569.66
2023-04-14T01:51:55.826Z,100571.19
2023-04-14T01:54:23.961Z,100565.25
2023-04-14T01:56:52.956Z,100563.81
2023-04-14T01:59:22.850Z,100558.78
2023-04-14T02:01:51.574Z,100565.53
2023-04-14T02:04:23.259Z,100556.41
2023-04-14T02:06:52.793Z,100548.09
2023-04-14T02:09:22.202Z,100561.63
2023-04-14T02:11:53.852Z,100561.91
2023-04-14T02:14:23.822Z,100560.31
2023-04-14T02:16:53.848Z,100570.03
2023-04-14T02:19:23.052Z,100564.06
2023-04-14T02:21:51.451Z,100566.22
2023-04-14T02:24:19.650Z,100570.59
2023-04-14T02:27:19.099Z,100567.81
2023-04-14T02:29:52.783Z,100574.84
2023-04-14T02:32:29.898Z,100566.41
2023-04-14T02:35:12.326Z,100566.41
2023-04-14T02:37:44.888Z,100564.53
2023-04-14T02:40:18.731Z,100554.88
2023-04-14T02:42:51.573Z,100561.63
2023-04-14T02:45:23.438Z,100553.75
2023-04-14T02:47:56.007Z,100547.00
2023-04-14T02:50:24.264Z,100553.63
2023-04-14T02:52:54.894Z,100547.91
2023-04-14T02:55:23.230Z,100546.69
2023-04-14T02:58:00.430Z,100543.91
2023-04-14T03:00:29.124Z,100543.13
2023-04-14T03:02:57.621Z,100542.75
2023-04-14T03:05:25.683Z,100550.34
2023-04-14T03:07:55.132Z,100547.53
2023-04-14T03:10:23.315Z,100540.19
2023-04-14T03:12:51.515Z,100541.16
2023-04-14T03:15:22.045Z,100546.56
2023-04-14T03:18:07.211Z,100538.59
2023-04-14T03:20:34.777Z,100548.56
2023-04-14T03:23:06.103Z,100542.81
2023-04-14T03:25:39.194Z,100551.66
2023-04-14T03:28:13.689Z,100544.22
2023-04-14T03:30:44.786Z,100539.72
2023-04-14T03:33:14.578Z,100535.06
2023-04-14T03:35:42.607Z,100528.69
2023-04-14T03:38:11.725Z,100535.47
2023-04-14T03:40:41.234Z,100540.38
2023-04-14T03:43:13.150Z,100531.03
2023-04-14T03:45:40.768Z,100534.72
2023-04-14T03:48:15.078Z,100541.94
2023-04-14T03:50:52.112Z,100541.00
2023-04-14T03:53:45.824Z,100540.28
2023-04-14T03:56:20.440Z,100532.00
2023-04-14T03:58:51.552Z,100544.16
2023-04-14T04:01:19.772Z,100538.13
2023-04-14T04:03:48.521Z,100538.25
2023-04-14T04:06:16.114Z,100539.81
2023-04-14T04:08:44.758Z,100534.00
2023-04-14T04:11:14.598Z,100535.16
2023-04-14T04:13:42.414Z,100528.78
2023-04-14T04:16:12.095Z,100548.97
2023-04-14T04:18:40.260Z,100550.94
2023-04-14T04:21:11.737Z,100536.22
2023-04-14T04:23:41.940Z,100541.16
2023-04-14T04:26:09.261Z,100535.94
2023-04-14T04:28:37.386Z,100543.53
2023-04-14T04:31:06.243Z,100532.47
2023-04-14T04:33:34.379Z,100538.44
2023-04-14T04:36:03.191Z,100533.16
2023-04-14T04:38:30.690Z,100537.41
2023-04-14T04:40:58.056Z,100540.41
2023-04-14T04:43:25.250Z,100533.00
2023-04-14T04:45:58.308Z,100544.84
2023-04-14T04:48:26.020Z,100537.31
2023-04-14T04:50:52.982Z,100542.28
2023-04-14T04:53:20.009Z,100537.75
2023-04-14T04:55:47.135Z,100545.50
2023-04-14T04:58:14.110Z,100539.72
2023-04-14T05:00:41.239Z,100535.25
2023-04-14T05:03:08.492Z,100545.28
2023-04-14T05:05:37.220Z,100551.16
2023-04-14T05:08:04.843Z,100541.41
2023-04-14T05:10:37.061Z,100552.97
2023-04-14T05:13:04.290Z,100538.78
2023-04-14T05:15:31.841Z,100553.53
2023-04-14T05:17:59.276Z,100546.31
2023-04-14T05:20:26.364Z,100554.25
2023-04-14T05:22:54.396Z,100549.34
2023-04-14T05:25:22.682Z,100545.91
2023-04-14T05:27:49.746Z,100556.31
2023-04-14T05:30:16.774Z,100555.72
2023-04-14T05:32:44.112Z,100558.66
2023-04-14T05:35:11.129Z,100564.28
2023-04-14T05:37:38.110Z,100556.19
2023-04-14T05:40:06.104Z,100547.56
2023-04-14T05:42:33.095Z,100552.81
2023-04-14T05:45:00.096Z,100554.03
2023-04-14T05:47:27.150Z,100558.09
2023-04-14T05:49:54.135Z,100552.31
2023-04-14T05:52:21.394Z,100543.75
2023-04-14T05:54:48.424Z,100545.56
2023-04-14T05:57:15.424Z,100545.91
2023-04-14T05:59:42.555Z,100542.84
2023-04-14T06:02:09.501Z,100541.88
2023-04-14T06:04:36.604Z,100540.03
2023-04-14T06:07:04.069Z,100539.31
2023-04-14T06:09:31.690Z,100544.28
2023-04-14T06:11:58.693Z,100552.28
2023-04-14T06:14:25.828Z,100546.06
2023-04-14T06:16:52.989Z,100556.16
2023-04-14T06:19:20.291Z,100550.75
2023-04-14T06:21:47.279Z,100560.38
2023-04-14T06:24:14.252Z,100559.25
2023-04-14T06:26:42.300Z,100551.94
2023-04-14T06:29:09.438Z,100554.78
2023-04-14T06:31:36.598Z,100557.81
2023-04-14T06:34:03.666Z,100556.94
2023-04-14T06:36:31.670Z,100548.88
2023-04-14T06:38:58.953Z,100557.50
2023-04-14T06:41:26.330Z,100548.75
2023-04-14T06:43:53.283Z,100542.81
2023-04-14T06:46:20.266Z,100539.91
2023-04-14T06:48:47.369Z,100549.06
2023-04-14T06:51:14.468Z,100552.47
2023-04-14T06:53:41.544Z,100554.75
2023-04-14T06:56:08.738Z,100556.41
2023-04-14T06:58:35.960Z,100544.75
2023-04-14T07:01:04.090Z,100551.84
2023-04-14T07:03:33.057Z,100548.16
2023-04-14T07:06:09.434Z,100555.38
2023-04-14T07:08:38.176Z,100541.66
2023-04-14T07:11:11.361Z,100550.16
2023-04-14T07:13:39.277Z,100545.25
2023-04-14T07:16:07.546Z,100539.59
2023-04-14T07:18:35.421Z,100545.56
2023-04-14T07:21:02.588Z,100542.16
2023-04-14T07:23:29.735Z,100539.22
2023-04-14T07:25:59.278Z,100540.13
2023-04-14T07:28:28.157Z,100532.34
2023-04-14T07:30:55.365Z,100532.28
2023-04-14T07:33:22.762Z,100518.41
2023-04-14T07:36:03.123Z,100519.38
2023-04-14T07:38:33.133Z,100523.81
2023-04-14T07:41:04.283Z,100516.56
2023-04-14T07:43:37.484Z,100497.97
2023-04-14T07:46:06.928Z,100502.44
2023-04-14T07:48:36.390Z,100496.38
2023-04-14T07:51:05.442Z,100497.13
2023-04-14T07:53:33.578Z,100496.81
2023-04-14T07:56:00.960Z,100491.00
2023-04-14T07:58:29.555Z,100494.09
2023-04-14T08:00:57.690Z,100499.44
2023-04-14T08:03:24.697Z,100506.16
2023-04-14T08:05:52.416Z,100502.22
2023-04-14T08:08:19.693Z,100495.66
2023-04-14T08:10:46.716Z,100488.66
2023-04-14T08:13:13.665Z,100497.91
2023-04-14T08:15:40.805Z,100496.31
2023-04-14T08:18:07.910Z,100492.84
2023-04-14T08:20:34.890Z,100494.44
2023-04-14T08:23:01.921Z,100483.69
2023-04-14T08:25:30.666Z,100496.41
2023-04-14T08:27:57.619Z,100488.31
2023-04-14T08:30:24.788Z,100495.25
2023-04-14T08:32:51.942Z,100489.22
2023-04-14T08:35:38.835Z,100485.41
2023-04-14T08:38:06.178Z,100501.41
2023-04-14T08:40:44.161Z,100460.38
2023-04-14T08:43:13.891Z,100468.88
2023-04-14T08:45:43.055Z,100469.78
2023-04-14T08:48:12.181Z,100466.16
2023-04-14T08:50:49.575Z,100462.72
2023-04-14T08:53:18.592Z,100462.84
2023-04-14T08:55:46.131Z,100471.63
2023-04-14T08:58:13.058Z,100462.94
2023-04-14T09:00:41.648Z,100467.88
2023-04-14T09:03:09.445Z,100462.44
2023-04-14T09:05:37.364Z,100458.53
2023-04-14T09:08:04.826Z,100455.16
2023-04-14T09:10:32.663Z,100455.97
2023-04-14T09:13:00.339Z,100454.81
2023-04-14T09:15:29.076Z,100455.88
2023-04-14T09:17:56.632Z,100446.25
2023-04-14T09:20:38.038Z,100446.22
2023-04-14T09:23:10.027Z,100450.19
2023-04-14T09:25:41.069Z,100454.03
2023-04-14T09:28:08.777Z,100448.78
2023-04-14T09:30:35.710Z,100441.34
2023-04-14T09:35:53.767Z,100441.59
2023-04-14T09:38:36.550Z,100429.19
2023-04-14T09:41:06.101Z,100428.00
2023-04-14T09:43:33.312Z,100430.81
2023-04-14T09:46:08.641Z,100442.19
2023-04-14T09:48:39.277Z,100433.84
2023-04-14T09:51:14.021Z,100440.19
2023-04-14T09:53:41.364Z,100457.94
2023-04-14T09:56:11.768Z,100436.97
2023-04-14T09:58:44.333Z,100439.44
2023-04-14T10:01:19.909Z,100456.28
2023-04-14T10:03:49.043Z,100444.19
2023-04-14T10:06:19.033Z,100431.63
2023-04-14T10:08:48.672Z,100441.94
2023-04-14T10:11:32.709Z,100416.69
2023-04-14T10:14:06.438Z,100423.31
2023-04-14T10:16:34.713Z,100430.00
2023-04-14T10:19:03.030Z,100426.41
2023-04-14T10:21:30.681Z,100421.56
2023-04-14T10:23:58.098Z,100421.44
2023-04-14T10:26:26.422Z,100424.28
2023-04-14T10:28:55.504Z,100417.59
2023-04-14T10:31:38.348Z,100423.25
2023-04-14T10:34:13.777Z,100418.63
2023-04-14T10:36:41.517Z,100409.22
2023-04-14T10:39:11.015Z,100406.72
2023-04-14T10:41:43.928Z,100402.16
2023-04-14T10:44:34.975Z,100412.53
2023-04-14T10:47:08.463Z,100418.66
2023-04-14T10:49:41.125Z,100409.69
2023-04-14T10:52:17.181Z,100411.81
2023-04-14T10:55:01.174Z,100412.63
2023-04-14T10:57:29.661Z,100404.47
2023-04-14T11:00:00.517Z,100393.94
2023-04-14T11:02:35.174Z,100394.50
2023-04-14T11:05:11.377Z,100385.59
2023-04-14T11:07:45.254Z,100379.34
2023-04-14T11:10:27.134Z,100383.44
2023-04-14T11:13:05.441Z,100374.25
2023-04-14T11:16:02.404Z,100378.91
2023-04-14T11:18:29.257Z,100364.38
2023-04-14T11:21:07.380Z,100379.00
2023-04-14T11:23:36.764Z,100367.56
2023-04-14T11:26:06.761Z,100367.19
2023-04-14T11:28:38.655Z,100368.19
2023-04-14T11:31:08.816Z,100359.22
2023-04-14T11:33:38.797Z,100375.13
2023-04-14T11:36:07.857Z,100357.84
2023-04-14T11:38:36.546Z,100376.31
2023-04-14T11:41:04.451Z,100360.13
2023-04-14T11:43:31.573Z,100361.13
2023-04-14T11:46:05.601Z,100366.72
2023-04-14T11:48:32.938Z,100366.38
2023-04-14T11:51:03.731Z,100366.13
2023-04-14T11:53:32.472Z,100367.78
2023-04-14T11:56:00.881Z,100377.19
2023-04-14T11:58:28.882Z,100360.88
2023-04-14T12:00:57.666Z,100363.34
2023-04-14T12:06:18.203Z,100365.28
2023-04-14T12:08:50.536Z,100351.94
2023-04-14T12:11:17.641Z,100356.84
2023-04-14T12:13:47.136Z,100360.69
2023-04-14T12:16:16.023Z,100363.06
2023-04-14T12:18:44.144Z,100350.34
2023-04-14T12:21:16.827Z,100349.47
2023-04-14T12:23:48.516Z,100341.72
2023-04-14T12:26:16.115Z,100339.47
2023-04-14T12:28:43.439Z,100349.56
2023-04-14T12:31:10.690Z,100350.53
2023-04-14T12:33:38.394Z,100339.84
2023-04-14T12:36:13.061Z,100339.16
2023-04-14T12:38:40.173Z,100336.59
2023-04-14T12:41:07.185Z,100345.69
2023-04-14T12:43:37.193Z,100346.38
2023-04-14T12:46:05.713Z,100343.22
2023-04-14T12:48:40.369Z,100337.66
2023-04-14T12:51:14.978Z,100329.91
2023-04-14T12:53:44.094Z,100325.38
2023-04-14T12:56:14.187Z,100340.97
2023-04-14T12:58:46.691Z,100340.03
2023-04-14T13:01:17.054Z,100346.59
2023-04-14T13:03:50.974Z,100337.94
2023-04-14T13:06:23.106Z,100335.75
2023-04-14T13:08:52.368Z,100335.41
2023-04-14T13:11:21.478Z,100325.59
2023-04-14T13:13:48.431Z,100330.09
2023-04-14T13:16:18.522Z,100312.97
2023-04-14T13:18:47.406Z,100314.91
2023-04-14T13:21:14.621Z,100317.66
2023-04-14T13:23:41.760Z,100305.31
2023-04-14T13:26:09.057Z,100294.13
2023-04-14T13:28:36.910Z,100307.19
2023-04-14T13:31:04.040Z,100300.66
2023-04-14T13:33:32.544Z,100309.91
2023-04-14T13:35:59.703Z,100305.91
2023-04-14T13:38:27.249Z,100309.47
2023-04-14T13:40:54.173Z,100303.31
2023-04-14T13:43:21.594Z,100295.38
2023-04-14T13:45:48.577Z,100302.13
2023-04-14T13:48:15.534Z,100299.06
2023-04-14T13:50:42.522Z,100285.94
2023-04-14T13:53:09.788Z,100300.84
2023-04-14T13:55:37.384Z,100289.19
2023-04-14T13:58:04.484Z,100284.03
2023-04-14T14:00:31.414Z,100290.47
2023-04-14T14:02:58.625Z,100293.63
2023-04-14T14:05:26.405Z,100291.66
2023-04-14T14:07:53.648Z,100299.81
2023-04-14T14:10:21.017Z,100289.78
2023-04-14T14:12:47.930Z,100280.56
2023-04-14T14:15:14.901Z,100271.00
2023-04-14T14:17:42.796Z,100265.03
2023-04-14T14:20:10.133Z,100261.72
2023-04-14T14:22:37.025Z,100264.16
2023-04-14T14:25:17.503Z,100263.69
2023-04-14T14:27:47.003Z,100259.91
2023-04-14T14:30:14.171Z,100274.66
2023-04-14T14:32:41.169Z,100263.91
2023-04-14T14:35:08.683Z,100274.13
2023-04-14T14:37:35.765Z,100267.41
2023-04-14T14:40:03.506Z,100281.03
2023-04-14T14:42:31.267Z,100267.50
2023-04-14T14:45:01.066Z,100274.13
2023-04-14T14:47:28.998Z,100267.91
2023-04-14T14:50:02.741Z,100256.59
2023-04-14T14:52:34.660Z,100259.78
2023-04-14T14:55:02.714Z,100257.22
2023-04-14T14:57:30.418Z,100253.59
2023-04-14T14:59:57.768Z,100255.63
2023-04-14T15:02:25.596Z,100245.53
2023-04-14T15:04:53.817Z,100242.72
2023-04-14T15:07:20.889Z,100246.50
2023-04-14T15:09:49.821Z,100240.53
2023-04-14T15:12:17.460Z,100247.56
2023-04-14T15:14:44.832Z,100246.81
2023-04-14T15:17:11.725Z,100243.09
2023-04-14T15:19:38.778Z,100248.66
2023-04-14T15:22:05.761Z,100253.19
2023-04-14T15:24:32.694Z,100240.28
2023-04-14T15:26:59.641Z,100242.50
2023-04-14T15:29:26.819Z,100239.25
2023-04-14T15:31:53.905Z,100248.41
2023-04-14T15:34:21.482Z,100244.66
2023-04-14T15:36:48.777Z,100250.97
2023-04-14T15:39:15.768Z,100255.59
2023-04-14T15:41:43.353Z,100237.56
2023-04-14T15:44:10.297Z,100250.34
2023-04-14T15:46:37.186Z,100241.66
2023-04-14T15:49:04.190Z,100229.13
2023-04-14T15:51:31.123Z,100230.41
2023-04-14T15:53:58.048Z,100240.03
2023-04-14T15:56:25.059Z,100233.50
2023-04-14T15:58:51.955Z,100233.25
2023-04-14T16:01:19.030Z,100236.66
2023-04-14T16:03:46.243Z,100231.59
2023-04-14T16:06:13.251Z,100234.81
2023-04-14T16:08:40.290Z,100235.34
2023-04-14T16:11:07.856Z,100234.13
2023-04-14T16:13:34.866Z,100240.47
2023-04-14T16:16:02.051Z,100234.22
2023-04-14T16:18:29.009Z,100237.22
2023-04-14T16:20:55.951Z,100234.28
2023-04-14T16:23:23.238Z,100233.06
2023-04-14T16:25:50.435Z,100236.81
2023-04-14T16:28:17.525Z,100240.91
2023-04-14T16:30:45.897Z,100241.91
2023-04-14T16:33:13.462Z,100250.44
2023-04-14T16:35:40.605Z,100238.09
2023-04-14T16:38:10.953Z,100246.88
2023-04-14T16:40:38.069Z,100250.66
2023-04-14T16:43:05.124Z,100249.44
2023-04-14T16:45:32.763Z,100251.72
2023-04-14T16:48:00.078Z,100259.41
2023-04-14T16:50:27.649Z,100251.22
2023-04-14T16:52:54.685Z,100263.28
2023-04-14T16:55:21.740Z,100259.72
2023-04-14T16:57:48.686Z,100263.63
2023-04-14T17:00:16.805Z,100254.22
2023-04-14T17:02:44.064Z,100251.97
2023-04-14T17:05:13.250Z,100258.56
2023-04-14T17:07:41.134Z,100265.56
2023-04-14T17:10:09.260Z,100265.06
2023-04-14T17:12:36.235Z,100263.59
2023-04-14T17:15:04.491Z,100256.44
2023-04-14T17:17:32.027Z,100257.97
2023-04-14T17:19:59.509Z,100262.41
2023-04-14T17:22:27.700Z,100266.38
2023-04-14T17:24:55.724Z,100259.66
2023-04-14T17:27:22.898Z,100260.16
2023-04-14T17:29:49.860Z,100263.66
2023-04-14T17:32:18.486Z,100265.31
2023-04-14T17:34:48.624Z,100276.75
2023-04-14T17:37:16.011Z,100276.22
2023-04-14T17:39:43.408Z,100274.41
2023-04-14T17:42:11.488Z,100270.81
2023-04-14T17:44:38.493Z,100281.13
2023-04-14T17:47:13.296Z,100277.13
2023-04-14T17:49:40.252Z,100285.91
2023-04-14T17:52:07.948Z,100286.91
2023-04-14T17:54:36.658Z,100303.91
2023-04-14T17:57:04.490Z,100300.81
2023-04-14T17:59:31.650Z,100299.47
2023-04-14T18:01:58.660Z,100299.75
2023-04-14T18:04:25.747Z,100306.84
2023-04-14T18:06:52.795Z,100315.06
2023-04-14T18:09:19.765Z,100313.63
2023-04-14T18:11:46.716Z,100330.97
2023-04-14T18:14:14.427Z,100329.28
2023-04-14T18:16:41.543Z,100319.13
2023-04-14T18:19:09.166Z,100331.38
2023-04-14T18:21:36.134Z,100344.63
2023-04-14T18:26:33.416Z,100339.41
2023-04-14T18:29:01.031Z,100338.59
2023-04-14T18:31:28.456Z,100336.03
2023-04-14T18:33:55.445Z,100338.25
2023-04-14T18:36:22.682Z,100343.50
2023-04-14T18:38:49.830Z,100352.41
2023-04-14T18:41:17.676Z,100342.97
2023-04-14T18:43:44.594Z,100348.22
2023-04-14T18:46:11.961Z,100351.44
2023-04-14T18:48:40.536Z,100355.00
2023-04-14T18:51:10.133Z,100359.81
2023-04-14T18:53:39.645Z,100365.56
2023-04-14T18:56:07.672Z,100371.56
2023-04-14T18:58:34.661Z,100366.41
2023-04-14T19:01:01.894Z,100370.53
2023-04-14T19:03:30.297Z,100375.84
2023-04-14T19:05:57.838Z,100377.91
2023-04-14T19:08:25.272Z,100379.38
2023-04-14T19:10:52.512Z,100382.31
2023-04-14T19:13:19.830Z,100386.75
2023-04-14T19:15:47.153Z,100385.69
2023-04-14T19:18:15.047Z,100386.03
2023-04-14T19:20:42.390Z,100394.50
2023-04-14T19:23:10.081Z,100390.50
2023-04-14T19:25:38.693Z,100391.28
2023-04-14T19:28:07.953Z,100400.63
2023-04-14T19:30:35.640Z,100398.94
2023-04-14T19:33:04.724Z,100401.91
2023-04-14T19:35:31.666Z,100402.47
2023-04-14T19:37:58.648Z,100396.00
2023-04-14T19:40:25.614Z,100399.06
2023-04-14T19:42:55.225Z,100393.91
2023-04-14T19:45:22.435Z,100396.13
2023-04-14T19:47:49.438Z,100405.06
2023-04-14T19:50:16.701Z,100379.78
2023-04-14T19:52:46.550Z,100395.22
2023-04-14T19:55:13.670Z,100395.25
2023-04-14T19:57:40.678Z,100391.50
2023-04-14T20:00:11.548Z,100395.09
2023-04-14T20:02:38.890Z,100395.88
2023-04-14T20:05:06.427Z,100388.19
2023-04-14T20:07:33.406Z,100400.44
2023-04-14T20:10:01.481Z,100400.50
2023-04-14T20:12:28.460Z,100400.88
2023-04-14T20:14:55.381Z,100404.22
2023-04-14T20:17:23.275Z,100403.75
2023-04-14T20:19:50.787Z,100405.00
2023-04-14T20:22:17.750Z,100403.41
2023-04-14T20:24:45.555Z,100405.97
2023-04-14T20:27:13.388Z,100417.00
2023-04-14T20:29:40.308Z,100401.84
2023-04-14T20:32:07.673Z,100400.13
2023-04-14T20:34:35.480Z,100400.03
2023-04-14T20:37:02.755Z,100396.81
2023-04-14T20:39:29.655Z,100392.28
2023-04-14T20:41:56.599Z,100396.50
2023-04-14T20:44:23.877Z,100397.16
2023-04-14T20:46:52.177Z,100394.47
2023-04-14T20:49:19.101Z,100390.59
2023-04-14T20:51:46.930Z,100401.06
2023-04-14T20:54:13.973Z,100393.28
2023-04-14T20:56:40.970Z,100386.97
2023-04-14T20:59:08.183Z,100400.50
2023-04-14T21:01:35.197Z,100392.34
2023-04-14T21:04:02.196Z,100386.44
2023-04-14T21:06:32.388Z,100387.50
2023-04-14T21:09:00.204Z,100379.84
2023-04-14T21:11:28.076Z,100389.00
2023-04-14T21:15:25.558Z,100385.28
2023-04-14T21:16:41.957Z,100386.19
2023-04-14T21:19:09.430Z,100380.16
2023-04-14T21:21:36.923Z,100373.97
2023-04-14T21:24:04.263Z,100368.25
2023-04-14T21:26:32.107Z,100367.28
2023-04-14T21:28:59.059Z,100373.78
2023-04-14T21:31:26.189Z,100373.19
2023-04-14T21:33:53.147Z,100369.38
2023-04-14T21:36:20.519Z,100360.31
2023-04-14T21:38:48.039Z,100368.03
2023-04-14T21:41:16.019Z,100371.75
2023-04-14T21:43:43.461Z,100365.13
2023-04-14T21:46:10.556Z,100363.75
2023-04-14T21:48:37.514Z,100362.16
2023-04-14T21:51:04.961Z,100366.81
2023-04-14T21:53:32.307Z,100379.63
2023-04-14T21:56:10.758Z,100374.16
2023-04-14T21:58:41.960Z,100379.38
2023-04-14T22:01:12.342Z,100380.22
2023-04-14T22:03:41.037Z,100380.94
2023-04-14T22:06:10.006Z,100391.28
2023-04-14T22:08:39.033Z,100392.38
2023-04-14T22:11:07.051Z,100397.41
2023-04-14T22:13:34.047Z,100392.19
2023-04-14T22:16:01.013Z,100400.72
2023-04-14T22:18:28.746Z,100399.97
2023-04-14T22:20:55.764Z,100391.06
2023-04-14T22:23:23.389Z,100395.72
2023-04-14T22:25:50.905Z,100391.69
2023-04-14T22:28:17.801Z,100401.19
2023-04-14T22:30:44.908Z,100403.53
2023-04-14T22:33:12.044Z,100400.84
2023-04-14T22:35:39.054Z,100397.19
2023-04-14T22:38:06.074Z,100402.28
2023-04-14T22:40:33.110Z,100397.22
2023-04-14T22:43:00.108Z,100400.13
2023-04-14T22:45:28.084Z,100404.97
2023-04-14T22:47:55.123Z,100412.00
2023-04-14T22:50:22.534Z,100414.28
2023-04-14T22:52:49.466Z,100415.13
2023-04-14T22:55:16.820Z,100408.19
2023-04-14T22:57:43.831Z,100415.09
2023-04-14T23:00:11.877Z,100410.34
2023-04-14T23:02:41.073Z,100414.13
2023-04-14T23:05:10.500Z,100415.78
2023-04-14T23:07:43.822Z,100416.81
2023-04-14T23:10:11.442Z,100421.13
2023-04-14T23:12:41.252Z,100422.94
2023-04-14T23:15:08.660Z,100425.59
2023-04-14T23:17:35.753Z,100415.25
2023-04-14T23:20:02.709Z,100420.69
2023-04-14T23:22:29.701Z,100427.44
2023-04-14T23:24:56.717Z,100420.91
2023-04-14T23:27:23.746Z,100422.81
2023-04-14T23:29:50.696Z,100432.59
2023-04-14T23:32:17.615Z,100423.78
2023-04-14T23:34:44.516Z,100423.34
2023-04-14T23:37:12.666Z,100430.34
2023-04-14T23:39:39.564Z,100428.75
2023-04-14T23:42:06.943Z,100430.97
2023-04-14T23:44:34.012Z,100431.66
2023-04-14T23:47:01.194Z,100434.81
2023-04-14T23:49:35.371Z,100427.00
2023-04-14T23:52:03.435Z,100425.00
2023-04-14T23:54:31.738Z,100428.84
2023-04-14T23:56:58.900Z,100426.03
2023-04-14T23:59:26.348Z,100441.00
